createdAt,value
2018-04-29T00:01:17.409Z,2.53
2018-04-29T00:03:44.096Z,2.87
2018-04-29T00:06:10.812Z,2.00
2018-04-29T00:08:43.653Z,2.37
2018-04-29T00:11:10.214Z,2.40
2018-04-29T00:13:36.862Z,2.70
2018-04-29T00:16:03.449Z,2.30
2018-04-29T00:18:33.570Z,2.50
2018-04-29T00:21:00.160Z,2.40
2018-04-29T00:23:26.933Z,2.13
2018-04-29T00:25:53.675Z,2.20
2018-04-29T00:28:21.364Z,2.50
2018-04-29T00:30:48.046Z,3.33
2018-04-29T00:33:15.062Z,3.80
2018-04-29T00:35:41.790Z,3.40
2018-04-29T00:38:14.100Z,2.70
2018-04-29T00:40:40.720Z,2.20
2018-04-29T00:43:07.407Z,2.43
2018-04-29T00:45:34.072Z,2.10
2018-04-29T00:48:01.782Z,1.97
2018-04-29T00:50:28.781Z,2.10
2018-04-29T00:52:55.470Z,1.97
2018-04-29T00:55:22.122Z,1.93
2018-04-29T00:57:52.472Z,1.97
2018-04-29T01:00:19.146Z,2.20
2018-04-29T01:02:45.829Z,1.90
2018-04-29T01:05:12.472Z,2.23
2018-04-29T01:07:42.653Z,2.90
2018-04-29T01:10:09.304Z,2.80
2018-04-29T01:12:36.035Z,2.90
2018-04-29T01:15:02.573Z,2.60
2018-04-29T01:17:30.700Z,2.83
2018-04-29T01:19:57.497Z,2.13
2018-04-29T01:22:24.215Z,1.87
2018-04-29T01:24:50.876Z,2.53
2018-04-29T01:27:21.314Z,2.37
2018-04-29T01:29:47.960Z,2.30
2018-04-29T01:32:14.584Z,2.00
2018-04-29T01:34:41.298Z,2.07
2018-04-29T01:37:11.135Z,2.00
2018-04-29T01:39:37.927Z,1.70
2018-04-29T01:42:04.885Z,2.03
2018-04-29T01:44:32.005Z,2.10
2018-04-29T01:46:59.262Z,1.63
2018-04-29T01:49:25.954Z,2.30
2018-04-29T01:51:52.647Z,2.70
2018-04-29T01:54:19.336Z,3.17
2018-04-29T01:56:50.147Z,2.57
2018-04-29T01:59:17.446Z,3.10
2018-04-29T02:01:44.081Z,3.87
2018-04-29T02:04:10.690Z,3.90
2018-04-29T02:06:37.286Z,4.00
2018-04-29T02:09:03.908Z,3.80
2018-04-29T02:11:30.617Z,4.10
2018-04-29T02:13:57.357Z,4.00
2018-04-29T02:18:56.307Z,4.00
2018-04-29T02:21:22.969Z,4.43
2018-04-29T02:23:49.670Z,4.73
2018-04-29T02:26:16.397Z,4.00
2018-04-29T02:28:43.057Z,4.63
2018-04-29T02:31:09.751Z,3.63
2018-04-29T02:33:36.735Z,4.00
2018-04-29T02:36:03.294Z,3.60
2018-04-29T02:38:30.969Z,3.67
2018-04-29T02:40:57.708Z,3.83
2018-04-29T02:43:24.304Z,3.80
2018-04-29T02:45:50.878Z,3.67
2018-04-29T02:48:24.639Z,3.80
2018-04-29T02:50:51.345Z,3.10
2018-04-29T02:53:17.920Z,3.83
2018-04-29T02:55:44.727Z,3.70
2018-04-29T02:58:14.994Z,3.50
2018-04-29T03:00:41.664Z,3.83
2018-04-29T03:03:08.324Z,4.63
2018-04-29T03:05:34.998Z,4.07
2018-04-29T03:08:05.415Z,4.20
2018-04-29T03:10:32.135Z,4.10
2018-04-29T03:12:59.026Z,4.23
2018-04-29T03:15:25.585Z,3.53
2018-04-29T03:17:56.997Z,3.50
2018-04-29T03:20:23.658Z,4.50
2018-04-29T03:22:50.286Z,4.30
2018-04-29T03:25:17.980Z,3.70
2018-04-29T03:27:51.101Z,3.60
2018-04-29T03:30:17.751Z,3.67
2018-04-29T03:32:44.381Z,3.83
2018-04-29T03:35:11.081Z,4.10
2018-04-29T03:37:40.746Z,4.50
2018-04-29T03:40:07.456Z,4.27
2018-04-29T03:42:34.101Z,4.30
2018-04-29T03:45:00.961Z,4.17
2018-04-29T03:47:31.294Z,4.13
2018-04-29T03:49:57.921Z,4.20
2018-04-29T03:52:24.560Z,4.53
2018-04-29T03:54:51.274Z,4.63
2018-04-29T03:57:35.909Z,4.57
2018-04-29T04:00:16.369Z,5.07
2018-04-29T04:02:55.047Z,5.33
2018-04-29T04:05:21.966Z,5.07
2018-04-29T04:07:48.589Z,5.03
2018-04-29T04:10:15.184Z,5.27
2018-04-29T04:12:41.817Z,5.10
2018-04-29T04:15:08.528Z,5.13
2018-04-29T04:17:38.685Z,4.73
2018-04-29T04:20:05.330Z,5.10
2018-04-29T04:22:31.998Z,5.50
2018-04-29T04:24:58.546Z,4.40
2018-04-29T04:27:29.012Z,4.30
2018-04-29T04:29:55.711Z,3.50
2018-04-29T04:32:22.364Z,3.50
2018-04-29T04:34:49.050Z,3.60
2018-04-29T04:37:19.063Z,3.10
2018-04-29T04:39:45.637Z,4.83
2018-04-29T04:42:12.360Z,3.13
2018-04-29T04:44:38.948Z,3.80
2018-04-29T04:47:06.901Z,3.00
2018-04-29T04:49:33.565Z,3.43
2018-04-29T04:52:00.232Z,2.80
2018-04-29T04:54:26.883Z,3.20
2018-04-29T04:56:58.315Z,3.00
2018-04-29T04:59:24.947Z,3.17
2018-04-29T05:01:51.606Z,3.67
2018-04-29T05:04:18.394Z,3.43
2018-04-29T05:06:45.520Z,3.30
2018-04-29T05:09:12.078Z,4.07
2018-04-29T05:11:38.796Z,4.33
2018-04-29T05:14:05.562Z,3.90
2018-04-29T05:16:35.224Z,3.93
2018-04-29T05:19:01.904Z,4.67
2018-04-29T05:21:28.542Z,5.93
2018-04-29T05:23:55.186Z,6.60
2018-04-29T05:26:22.168Z,6.27
2018-04-29T05:28:48.820Z,5.63
2018-04-29T05:31:15.492Z,6.77
2018-04-29T05:33:41.977Z,6.00
2018-04-29T05:36:16.530Z,6.53
2018-04-29T05:38:43.153Z,6.63
2018-04-29T05:41:10.471Z,6.67
2018-04-29T05:43:37.194Z,6.53
2018-04-29T05:46:11.381Z,7.30
2018-04-29T05:48:43.927Z,6.67
2018-04-29T05:51:10.816Z,6.20
2018-04-29T05:53:37.781Z,6.93
2018-04-29T05:56:04.875Z,6.40
2018-04-29T05:58:31.587Z,7.47
2018-04-29T06:00:58.147Z,5.07
2018-04-29T06:03:25.041Z,5.40
2018-04-29T06:06:02.233Z,5.40
2018-04-29T06:08:28.860Z,3.87
2018-04-29T06:10:55.625Z,4.17
2018-04-29T06:13:22.318Z,4.50
2018-04-29T06:15:48.976Z,4.60
2018-04-29T06:18:15.682Z,3.73
2018-04-29T06:20:43.534Z,3.70
2018-04-29T06:23:10.230Z,4.13
2018-04-29T06:25:36.810Z,3.20
2018-04-29T06:28:06.977Z,3.50
2018-04-29T06:30:33.734Z,3.67
2018-04-29T06:33:00.147Z,3.80
2018-04-29T06:35:26.713Z,3.67
2018-04-29T06:37:59.362Z,3.57
2018-04-29T06:40:26.009Z,3.20
2018-04-29T06:42:52.694Z,4.20
2018-04-29T06:45:19.582Z,3.57
2018-04-29T06:47:47.730Z,3.80
2018-04-29T06:50:14.482Z,3.70
2018-04-29T06:52:41.164Z,3.53
2018-04-29T06:55:08.054Z,3.47
2018-04-29T06:57:35.625Z,3.30
2018-04-29T07:00:02.171Z,3.47
2018-04-29T07:02:28.840Z,3.77
2018-04-29T07:04:55.545Z,3.80
2018-04-29T07:07:25.457Z,3.33
2018-04-29T07:09:52.765Z,3.83
2018-04-29T07:12:19.378Z,3.50
2018-04-29T07:14:45.997Z,3.80
2018-04-29T07:17:16.350Z,3.80
2018-04-29T07:19:43.000Z,3.47
2018-04-29T07:22:09.706Z,2.87
2018-04-29T07:24:36.431Z,3.10
2018-04-29T07:27:04.022Z,3.00
2018-04-29T07:29:30.678Z,2.70
2018-04-29T07:31:57.396Z,2.93
2018-04-29T07:34:24.059Z,3.07
2018-04-29T07:36:53.922Z,2.57
2018-04-29T07:39:21.713Z,3.17
2018-04-29T07:41:48.338Z,3.50
2018-04-29T07:44:15.097Z,3.43
2018-04-29T07:46:42.053Z,3.50
2018-04-29T07:49:08.778Z,3.50
2018-04-29T07:51:35.444Z,3.20
2018-04-29T07:54:02.190Z,3.57
2018-04-29T07:56:32.754Z,3.20
2018-04-29T07:58:59.548Z,3.00
2018-04-29T08:01:26.594Z,3.10
2018-04-29T08:03:53.197Z,2.97
2018-04-29T08:06:19.781Z,3.50
2018-04-29T08:08:46.682Z,3.20
2018-04-29T08:11:13.355Z,2.93
2018-04-29T08:13:40.294Z,2.80
2018-04-29T08:16:13.297Z,3.00
2018-04-29T08:18:40.017Z,2.60
2018-04-29T08:21:06.770Z,2.90
2018-04-29T08:23:33.607Z,2.27
2018-04-29T08:26:07.563Z,2.20
2018-04-29T08:28:34.228Z,3.13
2018-04-29T08:31:00.849Z,2.80
2018-04-29T08:33:27.897Z,3.20
2018-04-29T08:35:58.390Z,2.47
2018-04-29T08:38:25.005Z,2.73
2018-04-29T08:40:51.519Z,2.90
2018-04-29T08:43:18.234Z,2.87
2018-04-29T08:45:52.546Z,2.93
2018-04-29T08:48:19.357Z,2.50
2018-04-29T08:50:45.979Z,2.47
2018-04-29T08:53:12.595Z,2.93
2018-04-29T08:55:42.962Z,2.80
2018-04-29T08:58:09.546Z,2.97
2018-04-29T09:00:39.370Z,3.03
2018-04-29T09:03:06.025Z,2.73
2018-04-29T09:05:37.066Z,2.93
2018-04-29T09:08:03.813Z,2.87
2018-04-29T09:10:31.097Z,2.70
2018-04-29T09:12:57.793Z,2.80
2018-04-29T09:15:32.249Z,2.97
2018-04-29T09:17:58.854Z,3.07
2018-04-29T09:20:25.473Z,2.90
2018-04-29T09:22:52.170Z,2.80
2018-04-29T09:25:18.741Z,3.10
2018-04-29T09:27:45.741Z,2.90
2018-04-29T09:30:12.397Z,2.70
2018-04-29T09:32:39.289Z,2.50
2018-04-29T09:35:05.834Z,2.57
2018-04-29T09:37:35.661Z,3.10
2018-04-29T09:40:02.292Z,3.17
2018-04-29T09:42:29.254Z,2.70
2018-04-29T09:44:55.821Z,2.73
2018-04-29T09:47:25.935Z,2.90
2018-04-29T09:49:52.616Z,3.00
2018-04-29T09:52:19.763Z,3.03
2018-04-29T09:54:46.521Z,2.90
2018-04-29T09:57:14.455Z,3.00
2018-04-29T09:59:41.187Z,3.20
2018-04-29T10:02:10.851Z,3.03
2018-04-29T10:04:37.921Z,2.60
2018-04-29T10:07:04.847Z,2.60
2018-04-29T10:09:31.955Z,2.60
2018-04-29T10:11:58.974Z,2.37
2018-04-29T10:14:25.642Z,2.43
2018-04-29T10:16:53.187Z,2.63
2018-04-29T10:19:20.001Z,2.50
2018-04-29T10:21:47.262Z,2.77
2018-04-29T10:24:13.737Z,3.47
2018-04-29T10:26:51.670Z,3.10
2018-04-29T10:29:18.303Z,2.73
2018-04-29T10:31:44.953Z,3.00
2018-04-29T10:34:11.738Z,2.80
2018-04-29T10:36:51.646Z,2.67
2018-04-29T10:39:18.133Z,2.50
2018-04-29T10:41:44.810Z,3.17
2018-04-29T10:44:11.437Z,2.50
2018-04-29T10:46:39.296Z,2.90
2018-04-29T10:49:06.028Z,2.47
2018-04-29T10:51:32.768Z,4.67
2018-04-29T10:53:59.454Z,4.43
2018-04-29T10:56:27.302Z,3.13
2018-04-29T10:58:53.989Z,3.80
2018-04-29T11:01:20.977Z,3.30
2018-04-29T11:03:47.581Z,3.50
2018-04-29T11:06:14.578Z,2.87
2018-04-29T11:08:41.743Z,3.60
2018-04-29T11:11:08.469Z,2.70
2018-04-29T11:13:35.129Z,2.97
2018-04-29T11:16:06.131Z,2.50
2018-04-29T11:18:32.745Z,3.03
2018-04-29T11:20:59.500Z,2.50
2018-04-29T11:23:26.156Z,2.93
2018-04-29T11:25:53.947Z,3.47
2018-04-29T11:28:21.401Z,2.33
2018-04-29T11:30:48.113Z,3.77
2018-04-29T11:33:16.173Z,2.20
2018-04-29T11:35:43.291Z,2.13
2018-04-29T11:38:09.865Z,2.80
2018-04-29T11:40:36.695Z,2.63
2018-04-29T11:43:03.217Z,3.30
2018-04-29T11:45:29.996Z,2.60
2018-04-29T11:47:56.679Z,2.50
2018-04-29T11:50:23.301Z,2.50
2018-04-29T11:52:50.050Z,2.90
2018-04-29T11:55:18.094Z,2.43
2018-04-29T11:57:44.866Z,2.60
2018-04-29T12:00:11.545Z,2.87
2018-04-29T12:02:38.215Z,2.30
2018-04-29T12:05:15.351Z,2.50
2018-04-29T12:07:42.192Z,2.40
2018-04-29T12:10:09.238Z,2.70
2018-04-29T12:12:35.904Z,2.83
2018-04-29T12:15:05.951Z,2.30
2018-04-29T12:17:33.094Z,2.40
2018-04-29T12:19:59.738Z,2.30
2018-04-29T12:22:26.522Z,2.60
2018-04-29T12:24:53.483Z,2.93
2018-04-29T12:27:20.061Z,2.30
2018-04-29T12:29:46.637Z,2.00
2018-04-29T12:32:13.554Z,2.10
2018-04-29T12:34:40.131Z,2.07
2018-04-29T12:37:07.923Z,1.57
2018-04-29T12:39:34.544Z,1.80
2018-04-29T12:42:02.209Z,1.87
2018-04-29T12:44:28.641Z,2.03
2018-04-29T12:47:03.064Z,1.80
2018-04-29T12:49:29.715Z,1.90
2018-04-29T12:51:56.848Z,1.70
2018-04-29T12:54:23.722Z,1.77
2018-04-29T12:56:51.953Z,2.00
2018-04-29T12:59:18.642Z,1.73
2018-04-29T13:01:45.606Z,1.90
2018-04-29T13:04:12.296Z,1.80
2018-04-29T13:06:43.441Z,1.67
2018-04-29T13:09:09.910Z,1.80
2018-04-29T13:11:36.569Z,2.20
2018-04-29T13:14:03.148Z,1.70
2018-04-29T13:16:34.617Z,1.53
2018-04-29T13:19:01.201Z,1.63
2018-04-29T13:21:28.337Z,1.63
2018-04-29T13:23:54.945Z,1.70
2018-04-29T13:26:27.069Z,1.57
2018-04-29T13:28:53.809Z,1.70
2018-04-29T13:31:20.507Z,1.70
2018-04-29T13:33:47.138Z,1.43
2018-04-29T13:36:24.402Z,1.60
2018-04-29T13:38:51.054Z,1.30
2018-04-29T13:41:17.706Z,1.57
2018-04-29T13:43:44.365Z,1.53
2018-04-29T13:46:18.729Z,1.77
2018-04-29T13:48:45.475Z,1.20
2018-04-29T13:51:12.130Z,1.50
2018-04-29T13:53:38.853Z,1.30
2018-04-29T13:56:10.187Z,1.33
2018-04-29T13:58:36.822Z,1.50
2018-04-29T14:01:03.433Z,1.50
2018-04-29T14:03:30.099Z,1.80
2018-04-29T14:06:03.184Z,1.07
2018-04-29T14:08:30.571Z,1.23
2018-04-29T14:10:57.730Z,1.37
2018-04-29T14:13:25.158Z,1.00
2018-04-29T14:15:55.031Z,1.57
2018-04-29T14:18:21.929Z,1.43
2018-04-29T14:20:48.590Z,1.00
2018-04-29T14:23:15.141Z,1.33
2018-04-29T14:25:46.031Z,1.10
2018-04-29T14:28:13.074Z,1.20
2018-04-29T14:30:39.673Z,1.20
2018-04-29T14:33:06.603Z,1.57
2018-04-29T14:35:34.514Z,1.60
2018-04-29T14:38:01.520Z,2.13
2018-04-29T14:40:28.322Z,2.10
2018-04-29T14:42:55.141Z,1.40
2018-04-29T14:45:29.043Z,1.43
2018-04-29T14:47:55.685Z,1.87
2018-04-29T14:50:22.314Z,1.43
2018-04-29T14:52:48.883Z,1.50
2018-04-29T14:55:21.119Z,1.30
2018-04-29T14:57:47.710Z,1.50
2018-04-29T15:00:14.356Z,2.20
2018-04-29T15:02:41.216Z,1.50
2018-04-29T15:05:11.273Z,1.40
2018-04-29T15:07:38.774Z,1.30
2018-04-29T15:10:05.394Z,1.83
2018-04-29T15:12:32.401Z,1.10
2018-04-29T15:15:03.201Z,1.00
2018-04-29T15:17:29.966Z,0.90
2018-04-29T15:19:56.619Z,1.37
2018-04-29T15:22:23.209Z,1.80
2018-04-29T15:24:51.079Z,1.53
2018-04-29T15:27:17.829Z,1.77
2018-04-29T15:29:44.602Z,1.53
2018-04-29T15:32:11.266Z,2.17
2018-04-29T15:34:43.965Z,1.67
2018-04-29T15:37:10.690Z,2.07
2018-04-29T15:39:37.293Z,3.70
2018-04-29T15:42:03.934Z,2.87
2018-04-29T15:44:34.085Z,2.20
2018-04-29T15:47:00.793Z,1.93
2018-04-29T15:49:27.413Z,2.20
2018-04-29T15:51:54.142Z,1.90
2018-04-29T15:54:25.753Z,1.90
2018-04-29T15:56:52.394Z,2.20
2018-04-29T15:59:19.023Z,1.90
2018-04-29T16:01:45.862Z,2.70
2018-04-29T16:04:12.624Z,2.37
2018-04-29T16:06:39.340Z,2.20
2018-04-29T16:09:06.011Z,2.20
2018-04-29T16:11:32.739Z,2.10
2018-04-29T16:13:59.349Z,2.60
2018-04-29T16:16:30.277Z,1.80
2018-04-29T16:18:57.060Z,2.13
2018-04-29T16:21:23.864Z,2.60
2018-04-29T16:23:50.563Z,1.80
2018-04-29T16:26:18.162Z,2.10
2018-04-29T16:28:44.865Z,2.37
2018-04-29T16:31:11.459Z,2.30
2018-04-29T16:33:38.041Z,2.30
2018-04-29T16:36:07.805Z,2.30
2018-04-29T16:38:34.429Z,1.90
2018-04-29T16:41:01.000Z,2.33
2018-04-29T16:43:27.795Z,2.23
2018-04-29T16:45:58.209Z,2.50
2018-04-29T16:48:24.823Z,2.30
2018-04-29T16:50:51.397Z,2.60
2018-04-29T16:53:18.065Z,2.40
2018-04-29T16:55:48.694Z,2.40
2018-04-29T16:58:16.076Z,2.67
2018-04-29T17:00:42.578Z,2.77
2018-04-29T17:03:09.238Z,3.13
2018-04-29T17:05:39.192Z,2.80
2018-04-29T17:08:05.810Z,2.77
2018-04-29T17:10:32.455Z,3.30
2018-04-29T17:12:59.966Z,3.90
2018-04-29T17:15:37.926Z,3.00
2018-04-29T17:18:04.725Z,3.83
2018-04-29T17:20:31.289Z,3.23
2018-04-29T17:22:57.931Z,4.13
2018-04-29T17:25:27.713Z,3.77
2018-04-29T17:27:55.559Z,5.20
2018-04-29T17:30:22.229Z,4.43
2018-04-29T17:32:48.882Z,4.37
2018-04-29T17:35:21.953Z,3.77
2018-04-29T17:37:48.669Z,4.90
2018-04-29T17:40:15.307Z,4.03
2018-04-29T17:42:42.000Z,3.90
2018-04-29T17:45:08.989Z,4.00
2018-04-29T17:47:35.968Z,3.50
2018-04-29T17:50:02.594Z,4.43
2018-04-29T17:52:29.149Z,3.60
2018-04-29T17:54:59.497Z,3.80
2018-04-29T17:57:26.353Z,4.60
2018-04-29T17:59:53.021Z,4.70
2018-04-29T18:02:19.731Z,4.53
2018-04-29T18:04:47.861Z,4.53
2018-04-29T18:07:14.594Z,4.20
2018-04-29T18:09:41.152Z,4.10
2018-04-29T18:12:07.847Z,4.30
2018-04-29T18:14:37.538Z,3.50
2018-04-29T18:17:04.261Z,4.30
2018-04-29T18:19:30.865Z,4.83
2018-04-29T18:21:57.466Z,4.97
2018-04-29T18:24:25.235Z,4.20
2018-04-29T18:26:51.956Z,3.83
2018-04-29T18:29:18.906Z,3.60
2018-04-29T18:31:45.623Z,3.70
2018-04-29T18:34:13.539Z,4.23
2018-04-29T18:36:40.710Z,4.63
2018-04-29T18:39:07.418Z,4.30
2018-04-29T18:41:34.060Z,4.23
2018-04-29T18:44:01.672Z,4.70
2018-04-29T18:46:28.334Z,4.30
2018-04-29T18:48:55.057Z,4.40
2018-04-29T18:51:22.038Z,4.83
2018-04-29T18:53:49.697Z,4.40
2018-04-29T18:56:16.446Z,4.87
2018-04-29T18:58:43.173Z,4.23
2018-04-29T19:01:10.257Z,4.43
2018-04-29T19:03:36.903Z,3.97
2018-04-29T19:06:07.226Z,4.20
2018-04-29T19:08:33.819Z,4.30
2018-04-29T19:11:00.499Z,4.27
2018-04-29T19:13:27.235Z,4.83
2018-04-29T19:15:54.963Z,4.37
2018-04-29T19:18:21.741Z,4.87
2018-04-29T19:20:48.464Z,4.73
2018-04-29T19:23:15.098Z,4.60
2018-04-29T19:25:44.840Z,4.73
2018-04-29T19:28:11.476Z,5.17
2018-04-29T19:30:38.205Z,6.53
2018-04-29T19:33:04.909Z,7.67
2018-04-29T19:35:35.617Z,5.97
2018-04-29T19:38:02.793Z,6.00
2018-04-29T19:40:29.453Z,5.40
2018-04-29T19:42:56.881Z,5.30
2018-04-29T19:45:24.596Z,4.90
2018-04-29T19:47:51.348Z,4.83
2018-04-29T19:50:18.090Z,4.70
2018-04-29T19:52:44.820Z,5.20
2018-04-29T19:55:11.766Z,4.57
2018-04-29T19:57:38.382Z,4.57
2018-04-29T20:00:04.934Z,4.50
2018-04-29T20:02:31.671Z,3.97
2018-04-29T20:04:59.406Z,3.80
2018-04-29T20:07:26.078Z,4.07
2018-04-29T20:09:52.713Z,4.63
2018-04-29T20:12:19.414Z,3.80
2018-04-29T20:14:46.225Z,4.10
2018-04-29T20:17:12.842Z,3.70
2018-04-29T20:19:39.521Z,3.87
2018-04-29T20:22:06.083Z,3.80
2018-04-29T20:24:32.826Z,3.73
2018-04-29T20:26:59.483Z,3.80
2018-04-29T20:29:26.622Z,3.63
2018-04-29T20:31:53.362Z,3.80
2018-04-29T20:34:20.181Z,4.07
2018-04-29T20:36:46.742Z,4.00
2018-04-29T20:39:14.182Z,3.90
2018-04-29T20:41:40.750Z,4.10
2018-04-29T20:44:13.350Z,4.60
2018-04-29T20:46:40.006Z,4.30
2018-04-29T20:49:06.611Z,3.90
2018-04-29T20:51:33.326Z,4.27
2018-04-29T20:54:03.901Z,4.40
2018-04-29T20:56:30.546Z,5.50
2018-04-29T20:58:57.200Z,5.30
2018-04-29T21:01:24.050Z,5.00
2018-04-29T21:03:58.740Z,4.63
2018-04-29T21:06:25.398Z,5.30
2018-04-29T21:08:52.058Z,4.80
2018-04-29T21:11:18.744Z,4.67
2018-04-29T21:13:46.473Z,5.20
2018-04-29T21:16:12.995Z,6.20
2018-04-29T21:18:39.514Z,5.03
2018-04-29T21:21:06.091Z,4.33
2018-04-29T21:23:32.893Z,4.87
2018-04-29T21:26:00.057Z,4.37
2018-04-29T21:28:26.709Z,4.90
2018-04-29T21:30:53.438Z,4.80
2018-04-29T21:33:19.926Z,4.50
2018-04-29T21:35:47.384Z,4.90
2018-04-29T21:38:14.201Z,5.27
2018-04-29T21:40:40.787Z,5.40
2018-04-29T21:43:07.575Z,4.80
2018-04-29T21:45:39.834Z,4.80
2018-04-29T21:48:06.316Z,5.87
2018-04-29T21:50:33.057Z,6.47
2018-04-29T21:52:59.630Z,5.17
2018-04-29T21:55:27.672Z,5.23
2018-04-29T21:57:54.148Z,5.43
2018-04-29T22:00:20.707Z,4.90
2018-04-29T22:02:47.284Z,5.60
2018-04-29T22:05:14.920Z,5.87
2018-04-29T22:07:41.538Z,5.50
2018-04-29T22:10:08.757Z,5.47
2018-04-29T22:12:35.824Z,5.23
2018-04-29T22:15:02.928Z,5.40
2018-04-29T22:17:29.569Z,5.07
2018-04-29T22:19:56.102Z,5.13
2018-04-29T22:22:22.689Z,4.80
2018-04-29T22:24:52.288Z,5.10
2018-04-29T22:27:18.937Z,5.33
2018-04-29T22:29:45.656Z,5.10
2018-04-29T22:32:12.229Z,5.00
2018-04-29T22:34:44.950Z,5.30
2018-04-29T22:37:11.694Z,4.87
2018-04-29T22:39:38.186Z,4.40
2018-04-29T22:42:04.700Z,5.10
2018-04-29T22:44:32.493Z,5.30
2018-04-29T22:46:59.008Z,5.33
2018-04-29T22:49:25.851Z,5.30
2018-04-29T22:51:52.500Z,5.70
2018-04-29T22:54:22.460Z,4.90
2018-04-29T22:56:49.048Z,5.27
2018-04-29T22:59:16.231Z,5.63
2018-04-29T23:01:43.133Z,5.80
2018-04-29T23:04:10.797Z,6.30
2018-04-29T23:06:37.467Z,5.83
2018-04-29T23:09:05.016Z,5.20
2018-04-29T23:11:31.763Z,5.77
2018-04-29T23:14:02.402Z,6.10
2018-04-29T23:16:29.026Z,6.67
2018-04-29T23:18:55.655Z,5.90
2018-04-29T23:21:22.376Z,6.10
2018-04-29T23:23:49.166Z,6.17
2018-04-29T23:26:15.881Z,6.03
2018-04-29T23:28:42.626Z,5.63
2018-04-29T23:31:09.309Z,6.30
2018-04-29T23:33:36.086Z,5.97
2018-04-29T23:36:02.641Z,5.57
2018-04-29T23:38:29.323Z,5.93
2018-04-29T23:40:56.345Z,6.13
2018-04-29T23:43:26.584Z,7.00
2018-04-29T23:45:53.765Z,5.70
2018-04-29T23:48:20.790Z,6.60
2018-04-29T23:50:47.485Z,6.30
2018-04-29T23:53:24.949Z,6.47
2018-04-29T23:55:51.866Z,6.57
2018-04-29T23:58:18.622Z,6.70
